Time;durP1;ratioP1;P1;durP2;ratioP2;P2;SDS_P1;SDS_P2;PMS_P1;PMS_P2;Temp;Humidity;BMP_temperature;BMP_pressure;BME280_temperature;BME280_humidity;BME280_pressure;Samples;Min_cycle;Max_cycle;Signal;HPM_P1;HPM_P2
2023/09/11 00:00:41;;;;;;;10.47;8.53;;;24.80;99.90;;;;;;5027994;28;20187;-74
2023/09/11 00:03:07;;;;;;;12.97;8.90;;;24.70;99.90;;;;;;5030969;28;20216;-74
2023/09/11 00:05:32;;;;;;;11.77;9.00;;;24.70;99.90;;;;;;5025158;28;20431;-74
2023/09/11 00:07:58;;;;;;;11.47;8.70;;;24.60;99.90;;;;;;5027070;28;20200;-74
2023/09/11 00:10:23;;;;;;;10.97;8.97;;;24.50;99.90;;;;;;5027642;28;20207;-74
2023/09/11 00:12:49;;;;;;;9.87;8.83;;;24.40;99.90;;;;;;5023958;28;20200;-74
2023/09/11 00:15:15;;;;;;;9.43;8.50;;;24.30;99.90;;;;;;5028509;28;20217;-74
2023/09/11 00:17:40;;;;;;;8.60;7.80;;;24.30;99.90;;;;;;5028404;28;20259;-74
2023/09/11 00:20:10;;;;;;;10.30;9.30;;;24.20;99.90;;;;;;5022525;28;20264;-74
2023/09/11 00:22:36;;;;;;;10.73;8.97;;;24.20;99.90;;;;;;5026909;28;20254;-73
2023/09/11 00:25:02;;;;;;;9.53;8.60;;;24.20;99.90;;;;;;5029012;28;20441;-73
2023/09/11 00:27:27;;;;;;;9.13;8.23;;;24.10;99.90;;;;;;5010064;28;20430;-74
2023/09/11 00:29:53;;;;;;;9.87;8.90;;;24.10;99.90;;;;;;5027203;28;20675;-74
2023/09/11 00:32:19;;;;;;;9.60;8.47;;;24.00;99.90;;;;;;5024635;28;20208;-74
2023/09/11 00:34:44;;;;;;;11.07;9.53;;;24.00;99.90;;;;;;5026067;28;20199;-74
2023/09/11 00:37:10;;;;;;;10.50;8.77;;;24.00;99.90;;;;;;5026085;28;20173;-74
2023/09/11 00:39:35;;;;;;;9.00;8.20;;;24.00;99.90;;;;;;5028544;28;20208;-74
2023/09/11 00:42:01;;;;;;;9.87;8.90;;;24.00;99.90;;;;;;5013133;28;20621;-74
2023/09/11 00:44:26;;;;;;;10.33;9.07;;;24.00;99.90;;;;;;5026194;28;20226;-74
2023/09/11 00:46:52;;;;;;;10.83;8.90;;;24.00;99.90;;;;;;5026995;28;20285;-74
2023/09/11 00:49:20;;;;;;;9.33;8.30;;;24.00;99.90;;;;;;5014290;28;20235;-74
2023/09/11 00:51:46;;;;;;;10.97;9.60;;;24.00;99.90;;;;;;5025858;28;20466;-74
2023/09/11 00:54:13;;;;;;;10.60;8.53;;;23.90;99.90;;;;;;5020070;28;20941;-74
2023/09/11 00:56:39;;;;;;;13.23;9.67;;;23.90;99.90;;;;;;5026056;28;20216;-74
2023/09/11 00:59:04;;;;;;;13.53;9.13;;;23.90;99.90;;;;;;5027881;28;20447;-74
2023/09/11 01:01:31;;;;;;;10.30;9.30;;;23.90;99.90;;;;;;5024929;28;20669;-74
2023/09/11 01:03:58;;;;;;;12.27;10.03;;;23.90;99.90;;;;;;5025523;28;20246;-74
2023/09/11 01:06:23;;;;;;;11.07;9.00;;;23.80;99.90;;;;;;5007995;28;20433;-74
2023/09/11 01:08:51;;;;;;;9.67;8.67;;;23.70;99.90;;;;;;5027216;28;20435;-74
2023/09/11 01:11:18;;;;;;;9.23;8.30;;;23.70;99.90;;;;;;5025423;28;20299;-74
2023/09/11 01:13:44;;;;;;;9.67;8.87;;;23.70;99.90;;;;;;5026198;28;20427;-74
2023/09/11 01:16:22;;;;;;;10.13;9.00;;;23.60;99.90;;;;;;5025341;28;20411;-74
2023/09/11 01:18:52;;;;;;;10.00;9.00;;;23.60;99.90;;;;;;5026626;28;20630;-74
2023/09/11 01:21:35;;;;;;;10.80;9.13;;;23.60;99.90;;;;;;5024884;28;20459;-74
2023/09/11 01:24:10;;;;;;;9.63;8.73;;;23.50;99.90;;;;;;5021802;28;21025;-74
2023/09/11 01:27:06;;;;;;;10.80;9.30;;;23.30;99.90;;;;;;5030948;28;20431;-74
2023/09/11 01:29:34;;;;;;;9.57;8.63;;;23.20;99.90;;;;;;5024734;28;20452;-74
2023/09/11 01:32:02;;;;;;;11.07;8.93;;;23.20;99.90;;;;;;5008547;28;20478;-73
2023/09/11 01:34:28;;;;;;;10.80;9.23;;;23.10;99.90;;;;;;5025628;28;20415;-74
2023/09/11 01:36:53;;;;;;;9.47;8.50;;;23.10;99.90;;;;;;5027151;28;20604;-74
2023/09/11 01:39:19;;;;;;;10.67;9.57;;;23.00;99.90;;;;;;5026225;28;20324;-74
2023/09/11 01:41:46;;;;;;;11.10;8.20;;;23.00;99.90;;;;;;5023788;28;20212;-74
2023/09/11 01:44:27;;;;;;;9.63;8.70;;;23.00;99.90;;;;;;5027941;28;20423;-74
2023/09/11 01:46:55;;;;;;;11.03;9.00;;;22.90;99.90;;;;;;5025223;28;20430;-74
2023/09/11 01:49:22;;;;;;;9.53;8.57;;;22.90;99.90;;;;;;5024369;28;20825;-74
2023/09/11 01:51:51;;;;;;;9.80;8.80;;;22.90;99.90;;;;;;5024156;28;20467;-74
2023/09/11 01:54:17;;;;;;;9.60;8.70;;;22.90;99.90;;;;;;5022691;28;20425;-74
2023/09/11 01:56:43;;;;;;;10.67;9.67;;;22.90;99.90;;;;;;5020599;28;20426;-74
2023/09/11 01:59:08;;;;;;;10.07;8.37;;;22.80;99.90;;;;;;5024050;28;20558;-74
2023/09/11 02:01:34;;;;;;;9.97;8.97;;;22.80;99.90;;;;;;5023981;28;20264;-74
2023/09/11 02:03:59;;;;;;;12.47;8.57;;;22.70;99.90;;;;;;5026934;28;20184;-74
2023/09/11 02:06:25;;;;;;;14.00;8.87;;;22.70;99.90;;;;;;5022647;28;20594;-74
2023/09/11 02:08:50;;;;;;;10.20;9.13;;;22.70;99.90;;;;;;5021622;28;20282;-74
2023/09/11 02:11:16;;;;;;;10.03;8.67;;;22.70;99.90;;;;;;5023919;28;20716;-74
2023/09/11 02:13:42;;;;;;;10.10;9.07;;;22.70;99.90;;;;;;5023345;28;20205;-74
2023/09/11 02:16:07;;;;;;;10.80;8.80;;;22.80;99.90;;;;;;5021338;28;21030;-74
2023/09/11 02:18:33;;;;;;;10.07;9.07;;;22.80;99.90;;;;;;5022832;28;20645;-74
2023/09/11 02:20:58;;;;;;;12.97;10.53;;;22.70;99.90;;;;;;5022957;28;20542;-74
2023/09/11 02:23:24;;;;;;;8.80;7.90;;;22.60;99.90;;;;;;5020064;28;20295;-74
2023/09/11 02:25:53;;;;;;;9.97;8.97;;;22.60;99.90;;;;;;5023337;28;20180;-74
2023/09/11 02:28:18;;;;;;;16.77;8.90;;;22.60;99.90;;;;;;5025535;28;20176;-74
2023/09/11 02:30:44;;;;;;;10.30;9.30;;;22.70;99.90;;;;;;5031014;28;20546;-74
2023/09/11 02:33:09;;;;;;;9.60;8.60;;;22.70;99.90;;;;;;5025182;28;20208;-74
2023/09/11 02:35:35;;;;;;;11.07;8.50;;;22.60;99.90;;;;;;5026433;28;20235;-74
2023/09/11 02:38:01;;;;;;;9.63;8.70;;;22.70;99.90;;;;;;5026896;28;20172;-74
2023/09/11 02:40:26;;;;;;;13.50;9.37;;;22.60;99.90;;;;;;5023953;28;20982;-74
2023/09/11 02:42:52;;;;;;;10.00;9.00;;;22.60;99.90;;;;;;5025824;28;20574;-74
2023/09/11 02:45:17;;;;;;;14.67;8.87;;;22.60;99.90;;;;;;5025474;28;20566;-74
2023/09/11 02:47:43;;;;;;;11.23;9.57;;;22.60;99.90;;;;;;5026238;28;20172;-74
2023/09/11 02:50:09;;;;;;;13.90;10.00;;;22.60;99.90;;;;;;5024473;28;20188;-74
2023/09/11 02:52:34;;;;;;;11.40;9.13;;;22.60;99.90;;;;;;5026369;28;20245;-74
2023/09/11 02:55:00;;;;;;;10.30;9.23;;;22.60;99.90;;;;;;5026415;28;20188;-74
2023/09/11 02:57:25;;;;;;;12.33;8.93;;;22.50;99.90;;;;;;5026360;28;20529;-74
2023/09/11 02:59:55;;;;;;;10.50;9.40;;;22.50;99.90;;;;;;5015522;28;20207;-74
2023/09/11 03:02:21;;;;;;;13.90;9.63;;;22.50;99.90;;;;;;5029540;28;20193;-74
2023/09/11 03:04:51;;;;;;;10.63;8.60;;;22.50;99.90;;;;;;5027636;28;20974;-74
2023/09/11 03:07:20;;;;;;;10.63;8.90;;;22.50;99.90;;;;;;5041765;28;20447;-74
2023/09/11 03:09:46;;;;;;;10.03;8.30;;;22.50;99.90;;;;;;5048873;28;20422;-74
2023/09/11 03:12:11;;;;;;;11.80;8.73;;;22.50;99.90;;;;;;5041605;28;20467;-74
2023/09/11 03:14:38;;;;;;;10.43;9.33;;;22.60;99.90;;;;;;5044559;28;20543;-74
2023/09/11 03:17:04;;;;;;;12.80;9.70;;;22.60;99.90;;;;;;5043017;28;20264;-74
2023/09/11 03:19:36;;;;;;;11.10;9.40;;;22.60;99.90;;;;;;5034602;28;20484;-74
2023/09/11 03:22:01;;;;;;;9.50;8.53;;;22.50;99.90;;;;;;5027741;28;20236;-74
2023/09/11 03:24:27;;;;;;;10.70;8.57;;;22.50;99.90;;;;;;5031122;28;20434;-74
2023/09/11 03:26:53;;;;;;;11.77;10.40;;;22.50;99.90;;;;;;5026621;28;20213;-74
2023/09/11 03:29:18;;;;;;;9.60;8.60;;;22.50;99.90;;;;;;5022620;28;20673;-74
2023/09/11 03:31:44;;;;;;;10.33;8.37;;;22.50;99.90;;;;;;5021133;28;20263;-74
2023/09/11 03:34:09;;;;;;;10.00;9.00;;;22.50;99.90;;;;;;5023499;28;20188;-74
2023/09/11 03:36:35;;;;;;;12.60;8.50;;;22.50;99.90;;;;;;5023856;28;20177;-75
2023/09/11 03:39:01;;;;;;;9.80;8.90;;;22.40;99.90;;;;;;5022159;28;20189;-75
2023/09/11 03:41:27;;;;;;;13.10;9.13;;;22.50;99.90;;;;;;5022375;28;20188;-74
2023/09/11 03:43:52;;;;;;;9.87;8.87;;;22.40;99.90;;;;;;5013621;28;20188;-74
2023/09/11 03:46:18;;;;;;;9.80;8.63;;;22.40;99.90;;;;;;5016282;28;20188;-75
2023/09/11 03:48:44;;;;;;;10.50;9.40;;;22.40;99.90;;;;;;5022765;28;20182;-75
2023/09/11 03:51:09;;;;;;;11.10;9.37;;;22.50;99.90;;;;;;5023614;28;20228;-74
2023/09/11 03:53:35;;;;;;;12.63;8.90;;;22.50;99.90;;;;;;5025849;28;20189;-74
2023/09/11 03:56:01;;;;;;;12.03;8.40;;;22.40;99.90;;;;;;5018631;28;20189;-75
2023/09/11 03:58:27;;;;;;;12.27;9.70;;;22.40;99.90;;;;;;5023959;28;20548;-75
2023/09/11 04:00:54;;;;;;;18.53;9.73;;;22.40;99.90;;;;;;5020258;28;20447;-75
2023/09/11 04:03:20;;;;;;;12.03;9.40;;;22.40;99.90;;;;;;5023923;28;20196;-74
2023/09/11 04:05:45;;;;;;;10.03;9.03;;;22.40;99.90;;;;;;5021964;28;20419;-74
2023/09/11 04:08:11;;;;;;;10.40;8.40;;;22.50;99.90;;;;;;5025914;28;20206;-75
2023/09/11 04:10:36;;;;;;;11.40;9.53;;;22.50;99.90;;;;;;5022344;28;20208;-75
2023/09/11 04:13:02;;;;;;;15.93;9.97;;;22.40;99.90;;;;;;5020806;28;20203;-75
2023/09/11 04:15:28;;;;;;;13.67;10.07;;;22.40;99.90;;;;;;5020228;28;20180;-75
2023/09/11 04:17:55;;;;;;;11.27;10.07;;;22.40;99.90;;;;;;5021252;28;20180;-74
2023/09/11 04:20:21;;;;;;;11.00;9.53;;;22.40;99.90;;;;;;5019166;28;20187;-75
2023/09/11 04:22:46;;;;;;;11.20;9.43;;;22.40;99.90;;;;;;5024315;28;20431;-75
2023/09/11 04:25:13;;;;;;;14.63;10.20;;;22.40;99.90;;;;;;5020482;28;20990;-75
2023/09/11 04:27:39;;;;;;;13.60;9.03;;;22.40;99.90;;;;;;5024546;28;20211;-75
2023/09/11 04:30:05;;;;;;;12.37;10.30;;;22.40;99.90;;;;;;5008960;28;20474;-75
2023/09/11 04:32:30;;;;;;;11.37;9.40;;;22.40;99.90;;;;;;5021045;28;20193;-75
2023/09/11 04:34:56;;;;;;;11.17;9.43;;;22.40;99.90;;;;;;5022124;28;20438;-75
2023/09/11 04:37:22;;;;;;;12.20;9.40;;;22.40;99.90;;;;;;5028704;28;20180;-75
2023/09/11 04:39:47;;;;;;;14.30;10.07;;;22.40;99.90;;;;;;5027458;28;20192;-75
2023/09/11 04:42:13;;;;;;;13.90;9.47;;;22.30;99.90;;;;;;5026884;28;20208;-75
2023/09/11 04:44:38;;;;;;;13.03;8.50;;;22.20;99.90;;;;;;5025574;28;20180;-75
2023/09/11 04:47:06;;;;;;;11.30;10.20;;;22.20;99.90;;;;;;5027965;28;20203;-75
2023/09/11 04:49:31;;;;;;;11.77;9.60;;;22.20;99.90;;;;;;5023906;28;20210;-74
2023/09/11 04:51:57;;;;;;;14.57;9.57;;;22.20;99.90;;;;;;5028299;28;20481;-75
2023/09/11 04:54:23;;;;;;;9.63;8.53;;;22.10;99.90;;;;;;5027112;28;20176;-74
2023/09/11 04:56:48;;;;;;;10.50;9.40;;;22.00;99.90;;;;;;5028369;28;20673;-74
2023/09/11 04:59:14;;;;;;;9.67;8.70;;;22.00;99.90;;;;;;5007206;28;20545;-75
2023/09/11 05:01:40;;;;;;;14.57;9.20;;;22.00;99.90;;;;;;5021427;28;20656;-75
2023/09/11 05:04:06;;;;;;;9.63;8.63;;;21.90;99.90;;;;;;5022879;28;20437;-74
2023/09/11 05:06:32;;;;;;;10.10;8.57;;;21.90;99.90;;;;;;5026886;28;20193;-75
2023/09/11 05:08:58;;;;;;;13.03;8.90;;;21.80;99.90;;;;;;5022993;28;20943;-74
2023/09/11 05:11:24;;;;;;;13.10;9.70;;;21.90;99.90;;;;;;5024854;28;20239;-74
2023/09/11 05:13:49;;;;;;;11.30;9.03;;;21.90;99.90;;;;;;5024445;28;20438;-74
2023/09/11 05:16:17;;;;;;;10.60;8.87;;;21.90;99.90;;;;;;5027873;28;20187;-73
2023/09/11 05:18:43;;;;;;;11.10;9.97;;;21.90;99.90;;;;;;5025259;28;20180;-75
2023/09/11 05:21:08;;;;;;;9.73;8.67;;;21.90;99.90;;;;;;5023684;28;20424;-75
2023/09/11 05:23:34;;;;;;;10.10;8.60;;;21.90;99.90;;;;;;5023038;28;20674;-74
2023/09/11 05:26:00;;;;;;;14.47;8.97;;;21.90;99.90;;;;;;5022792;28;20676;-74
2023/09/11 05:28:25;;;;;;;13.07;10.10;;;21.90;99.90;;;;;;5025070;28;20248;-74
2023/09/11 05:30:51;;;;;;;13.33;9.07;;;21.90;99.90;;;;;;5023222;28;20235;-74
2023/09/11 05:33:16;;;;;;;12.33;10.03;;;21.90;99.90;;;;;;5025003;28;20205;-75
2023/09/11 05:35:45;;;;;;;11.87;8.93;;;21.90;99.90;;;;;;5024466;28;20542;-74
2023/09/11 05:38:11;;;;;;;11.73;10.37;;;21.90;99.90;;;;;;5011824;28;20176;-74
2023/09/11 05:40:37;;;;;;;18.40;10.07;;;21.90;99.90;;;;;;5021864;28;20450;-74
2023/09/11 05:43:02;;;;;;;11.00;9.80;;;21.90;99.90;;;;;;5023614;28;20188;-74
2023/09/11 05:45:28;;;;;;;19.03;10.73;;;21.90;99.90;;;;;;5025006;28;20473;-74
2023/09/11 05:47:54;;;;;;;11.60;10.10;;;21.90;99.90;;;;;;5019919;28;20268;-74
2023/09/11 05:50:19;;;;;;;11.43;8.93;;;21.90;99.90;;;;;;5026568;28;20238;-74
2023/09/11 05:52:45;;;;;;;14.00;11.10;;;21.90;99.90;;;;;;5023368;28;20189;-74
2023/09/11 05:55:10;;;;;;;14.47;10.30;;;21.90;99.90;;;;;;5025362;28;20184;-75
2023/09/11 05:57:36;;;;;;;13.13;10.10;;;21.90;99.90;;;;;;5021092;28;20262;-75
2023/09/11 06:00:09;;;;;;;13.67;10.60;;;21.90;99.90;;;;;;5024443;28;20564;-74
2023/09/11 06:02:35;;;;;;;13.27;10.40;;;21.90;99.90;;;;;;5022992;28;20339;-74
2023/09/11 06:05:00;;;;;;;19.90;13.07;;;21.90;99.90;;;;;;5023028;28;20501;-74
2023/09/11 06:07:26;;;;;;;17.50;11.10;;;22.00;99.90;;;;;;5013295;28;20859;-75
2023/09/11 06:09:52;;;;;;;11.90;10.10;;;22.00;99.90;;;;;;5021044;28;20185;-74
2023/09/11 06:12:17;;;;;;;14.13;12.57;;;22.00;99.90;;;;;;5025181;28;20333;-75
2023/09/11 06:14:43;;;;;;;12.30;10.93;;;22.00;99.90;;;;;;5019977;28;20176;-75
2023/09/11 06:17:08;;;;;;;13.27;10.73;;;22.10;99.90;;;;;;5022943;28;20188;-75
2023/09/11 06:19:34;;;;;;;12.23;10.77;;;22.10;99.90;;;;;;5024372;28;20330;-75
2023/09/11 06:21:59;;;;;;;14.70;10.50;;;22.10;99.90;;;;;;5010242;28;20795;-75
2023/09/11 06:24:25;;;;;;;14.07;9.80;;;22.20;99.90;;;;;;5014234;28;20320;-74
2023/09/11 06:27:03;;;;;;;17.13;10.30;;;22.20;99.90;;;;;;5019273;28;20552;-74
2023/09/11 06:29:28;;;;;;;15.80;11.37;;;22.20;99.90;;;;;;5023670;28;20258;-75
2023/09/11 06:31:54;;;;;;;14.77;11.37;;;22.20;99.90;;;;;;5020566;28;20498;-75
2023/09/11 06:34:20;;;;;;;12.67;11.40;;;22.20;99.90;;;;;;5033196;28;20187;-75
2023/09/11 06:36:46;;;;;;;17.67;11.53;;;22.20;99.90;;;;;;5039970;28;20236;-75
2023/09/11 06:39:11;;;;;;;12.53;11.23;;;22.20;99.90;;;;;;5020956;28;20187;-75
2023/09/11 06:41:37;;;;;;;12.57;11.13;;;22.20;99.90;;;;;;5021254;28;20443;-75
2023/09/11 06:44:03;;;;;;;15.00;11.57;;;22.30;99.90;;;;;;5028399;28;20180;-75
2023/09/11 06:46:28;;;;;;;15.53;10.40;;;22.30;99.90;;;;;;5021919;28;20192;-75
2023/09/11 06:48:54;;;;;;;13.37;10.73;;;22.40;99.90;;;;;;5026797;28;20187;-75
2023/09/11 06:51:19;;;;;;;12.13;10.57;;;22.40;99.90;;;;;;5024275;28;20211;-74
2023/09/11 06:53:45;;;;;;;12.33;10.60;;;22.40;99.90;;;;;;5030645;28;20227;-74
2023/09/11 06:56:12;;;;;;;12.23;11.10;;;22.40;99.90;;;;;;5022529;28;20186;-75
2023/09/11 06:58:38;;;;;;;14.80;13.30;;;22.50;99.90;;;;;;5023528;28;20476;-75
2023/09/11 07:01:04;;;;;;;17.17;15.37;;;22.40;99.90;;;;;;5017681;28;20454;-75
2023/09/11 07:03:29;;;;;;;17.60;15.07;;;22.50;99.90;;;;;;5022268;28;20483;-75
2023/09/11 07:05:55;;;;;;;16.77;13.33;;;22.60;99.90;;;;;;5022227;28;20231;-75
2023/09/11 07:08:20;;;;;;;13.23;11.83;;;22.50;99.90;;;;;;5022164;28;20203;-75
2023/09/11 07:10:50;;;;;;;17.40;12.27;;;22.60;99.90;;;;;;5018542;28;20205;-75
2023/09/11 07:13:16;;;;;;;15.33;10.97;;;22.60;99.90;;;;;;5026966;28;20192;-75
2023/09/11 07:15:42;;;;;;;14.63;13.10;;;22.60;99.90;;;;;;5021553;28;20424;-74
2023/09/11 07:18:07;;;;;;;12.10;10.90;;;22.60;99.90;;;;;;5013073;28;20423;-74
2023/09/11 07:20:33;;;;;;;17.30;13.57;;;22.70;99.90;;;;;;5023740;28;20176;-74
2023/09/11 07:22:58;;;;;;;14.80;12.07;;;22.60;99.90;;;;;;5020913;28;20207;-74
2023/09/11 07:25:24;;;;;;;13.83;11.63;;;22.70;99.90;;;;;;5025207;28;20229;-75
2023/09/11 07:27:49;;;;;;;15.10;11.60;;;22.80;99.90;;;;;;5021034;28;20191;-74
2023/09/11 07:30:15;;;;;;;13.37;11.70;;;22.90;99.90;;;;;;5025034;28;20658;-75
2023/09/11 07:32:41;;;;;;;15.53;13.77;;;23.00;99.90;;;;;;5008546;28;20208;-75
2023/09/11 07:35:07;;;;;;;15.20;12.03;;;23.00;99.90;;;;;;5019110;28;20615;-75
2023/09/11 07:37:33;;;;;;;13.87;12.47;;;23.10;99.90;;;;;;5024766;28;20173;-75
2023/09/11 07:39:58;;;;;;;13.37;11.97;;;23.10;99.90;;;;;;5031166;28;20411;-74
2023/09/11 07:42:24;;;;;;;12.77;11.47;;;23.30;99.90;;;;;;5024026;28;20457;-74
2023/09/11 07:44:51;;;;;;;14.43;13.00;;;23.50;99.90;;;;;;5025072;28;20269;-74
2023/09/11 07:47:16;;;;;;;13.20;11.87;;;23.40;99.90;;;;;;5024243;28;20184;-74
2023/09/11 07:49:42;;;;;;;11.60;10.50;;;23.40;99.90;;;;;;5009387;28;20437;-74
2023/09/11 07:52:07;;;;;;;15.90;11.93;;;23.40;99.90;;;;;;5027938;28;20585;-74
2023/09/11 07:54:33;;;;;;;13.57;11.87;;;23.40;99.90;;;;;;5045890;28;20160;-74
2023/09/11 07:57:01;;;;;;;15.10;11.93;;;23.40;99.90;;;;;;5049687;28;20203;-74
2023/09/11 07:59:26;;;;;;;14.73;13.33;;;23.40;99.90;;;;;;5043810;28;20207;-74
2023/09/11 08:01:52;;;;;;;12.57;10.70;;;23.30;99.90;;;;;;5047590;28;20447;-74
2023/09/11 08:04:18;;;;;;;18.07;12.77;;;23.30;99.90;;;;;;5042697;28;20248;-74
2023/09/11 08:06:43;;;;;;;13.93;10.87;;;23.30;99.90;;;;;;5026534;28;20257;-74
2023/09/11 08:09:09;;;;;;;15.90;12.00;;;23.40;99.90;;;;;;5039670;28;20193;-74
2023/09/11 08:11:39;;;;;;;11.87;10.77;;;23.40;99.90;;;;;;5057499;28;20237;-74
2023/09/11 08:14:05;;;;;;;12.60;11.13;;;23.60;99.90;;;;;;5028478;28;20319;-75
2023/09/11 08:16:31;;;;;;;14.10;10.90;;;23.60;99.90;;;;;;5031777;28;20903;-75
2023/09/11 08:18:56;;;;;;;13.37;12.00;;;23.60;99.90;;;;;;5011784;28;20478;-75
2023/09/11 08:21:22;;;;;;;14.97;11.30;;;23.60;99.90;;;;;;5025591;28;20910;-75
2023/09/11 08:23:48;;;;;;;11.90;10.70;;;23.70;99.90;;;;;;5023771;28;20205;-75
2023/09/11 08:26:13;;;;;;;13.33;11.13;;;24.00;99.90;;;;;;5013757;28;20188;-75
2023/09/11 08:28:39;;;;;;;12.47;11.17;;;24.00;99.90;;;;;;5009889;28;20275;-75
2023/09/11 08:31:05;;;;;;;12.40;10.40;;;23.90;99.90;;;;;;5027173;28;20342;-75
2023/09/11 08:33:30;;;;;;;13.10;11.67;;;24.00;99.90;;;;;;5024697;28;20966;-75
2023/09/11 08:35:56;;;;;;;14.00;11.27;;;24.00;99.90;;;;;;5027185;28;20188;-75
2023/09/11 08:38:22;;;;;;;11.70;10.50;;;24.10;99.90;;;;;;5026850;28;20737;-75
2023/09/11 08:40:48;;;;;;;14.00;11.73;;;24.20;99.90;;;;;;5028806;28;20430;-75
2023/09/11 08:43:14;;;;;;;19.73;12.30;;;24.30;99.90;;;;;;5024200;28;20209;-75
2023/09/11 08:45:40;;;;;;;12.03;10.93;;;24.40;99.90;;;;;;5026826;28;20242;-75
2023/09/11 08:48:11;;;;;;;12.00;10.40;;;24.50;99.90;;;;;;5022930;28;20419;-75
2023/09/11 08:50:50;;;;;;;12.53;11.33;;;24.40;99.90;;;;;;5026254;28;20517;-75
2023/09/11 08:53:18;;;;;;;12.90;11.27;;;24.50;99.90;;;;;;5023039;28;20520;-75
2023/09/11 08:55:46;;;;;;;12.60;10.87;;;24.60;99.90;;;;;;5025165;28;20526;-75
2023/09/11 08:58:14;;;;;;;14.67;11.27;;;24.60;99.90;;;;;;5029001;28;20497;-75
2023/09/11 09:00:40;;;;;;;14.07;11.73;;;24.50;99.90;;;;;;5028860;28;20423;-75
2023/09/11 09:03:07;;;;;;;16.60;12.40;;;24.60;99.90;;;;;;5021250;28;21441;-75
2023/09/11 09:05:33;;;;;;;11.60;10.60;;;24.60;99.90;;;;;;5024889;28;20451;-75
2023/09/11 09:08:01;;;;;;;13.20;11.53;;;24.60;99.90;;;;;;5026436;28;20485;-75
2023/09/11 09:10:26;;;;;;;16.43;11.27;;;24.60;99.90;;;;;;5026918;28;20434;-75
2023/09/11 09:12:54;;;;;;;12.60;11.30;;;24.60;99.90;;;;;;5026984;28;20443;-75
2023/09/11 09:15:21;;;;;;;14.43;11.60;;;24.70;99.90;;;;;;5025211;28;20255;-75
2023/09/11 09:17:50;;;;;;;15.47;13.87;;;24.90;99.90;;;;;;5027981;28;20951;-75
2023/09/11 09:20:17;;;;;;;18.27;16.47;;;24.90;99.90;;;;;;5026283;28;20462;-75
2023/09/11 09:22:59;;;;;;;15.90;11.50;;;25.00;99.90;;;;;;5026403;28;20999;-74
2023/09/11 09:25:26;;;;;;;12.37;11.27;;;25.10;99.90;;;;;;5023483;28;20448;-74
2023/09/11 09:27:52;;;;;;;12.37;11.27;;;25.20;99.90;;;;;;5024158;28;20419;-74
2023/09/11 09:30:37;;;;;;;12.40;11.10;;;25.30;99.90;;;;;;5025284;28;20466;-74
2023/09/11 09:33:03;;;;;;;14.83;11.10;;;25.30;99.90;;;;;;5024033;28;20454;-74
2023/09/11 09:35:31;;;;;;;11.80;10.60;;;25.40;99.90;;;;;;5024039;28;20465;-74
2023/09/11 09:37:58;;;;;;;11.30;10.13;;;25.40;99.90;;;;;;5020438;28;20600;-74
2023/09/11 09:40:50;;;;;;;13.63;10.90;;;25.50;99.90;;;;;;5022207;28;20419;-74
2023/09/11 09:43:18;;;;;;;15.30;11.40;;;25.60;99.90;;;;;;5017522;28;21004;-74
2023/09/11 09:45:44;;;;;;;12.50;11.20;;;25.60;99.90;;;;;;5024810;28;20438;-74
2023/09/11 09:48:20;;;;;;;13.20;11.37;;;25.70;99.90;;;;;;5012775;28;20884;-74
2023/09/11 09:50:53;;;;;;;13.33;10.97;;;25.80;99.90;;;;;;5025374;28;20296;-74
2023/09/11 09:53:26;;;;;;;13.63;11.10;;;25.90;99.90;;;;;;5010115;28;20517;-74
2023/09/11 09:55:54;;;;;;;14.00;12.20;;;26.00;99.90;;;;;;5019634;28;20457;-74
2023/09/11 09:58:24;;;;;;;12.70;11.37;;;26.10;99.90;;;;;;5024497;28;20723;-74
2023/09/11 10:00:56;;;;;;;11.93;10.80;;;26.20;99.90;;;;;;5009476;28;20979;-74
2023/09/11 10:03:22;;;;;;;11.70;10.60;;;26.20;99.90;;;;;;5027068;28;20828;-74
2023/09/11 10:05:49;;;;;;;12.70;11.40;;;26.30;99.90;;;;;;5019641;28;20438;-74
2023/09/11 10:08:15;;;;;;;12.07;10.10;;;26.40;99.90;;;;;;5027961;28;20427;-74
2023/09/11 10:10:40;;;;;;;17.20;10.97;;;26.40;99.90;;;;;;5024524;28;20457;-74
2023/09/11 10:13:10;;;;;;;11.90;10.80;;;26.50;99.90;;;;;;5023650;28;20204;-74
2023/09/11 10:15:38;;;;;;;12.50;11.27;;;26.60;99.90;;;;;;5022567;28;20204;-74
2023/09/11 10:18:05;;;;;;;12.90;10.60;;;26.80;99.90;;;;;;5025273;28;20431;-74
2023/09/11 10:20:31;;;;;;;10.00;9.10;;;26.80;99.90;;;;;;5022393;28;20415;-74
2023/09/11 10:23:00;;;;;;;12.50;10.67;;;26.70;99.90;;;;;;5024267;28;20442;-74
2023/09/11 10:25:29;;;;;;;10.60;9.70;;;26.70;99.90;;;;;;5020851;28;20906;-74
2023/09/11 10:28:05;;;;;;;11.20;10.20;;;26.80;99.90;;;;;;5023070;28;20528;-74
2023/09/11 10:31:09;;;;;;;11.53;10.33;;;26.80;99.90;;;;;;5023867;28;20426;-74
2023/09/11 10:33:38;;;;;;;11.63;10.40;;;26.90;99.90;;;;;;5001349;28;20843;-74
2023/09/11 10:36:14;;;;;;;10.50;9.23;;;27.00;99.90;;;;;;5026183;28;20418;-74
2023/09/11 10:38:43;;;;;;;12.10;10.30;;;27.10;99.90;;;;;;5025416;28;20414;-74
2023/09/11 10:41:09;;;;;;;10.63;9.63;;;27.20;99.90;;;;;;5024231;28;20416;-74
2023/09/11 10:43:35;;;;;;;11.10;10.00;;;27.20;99.90;;;;;;5022008;28;20443;-74
2023/09/11 10:46:19;;;;;;;10.97;9.67;;;27.30;99.90;;;;;;5023372;28;20411;-74
2023/09/11 10:48:45;;;;;;;10.47;9.40;;;27.40;99.90;;;;;;5024537;28;20415;-74
2023/09/11 10:51:12;;;;;;;10.97;9.43;;;27.50;99.90;;;;;;5007341;28;20557;-74
2023/09/11 10:53:38;;;;;;;10.17;9.20;;;27.60;99.90;;;;;;5024565;28;20561;-74
2023/09/11 10:56:04;;;;;;;11.13;10.03;;;27.70;99.90;;;;;;5022462;28;20407;-74
2023/09/11 10:58:30;;;;;;;10.17;8.70;;;27.70;99.90;;;;;;5013813;28;20439;-74
2023/09/11 11:00:57;;;;;;;10.00;9.00;;;27.80;99.90;;;;;;5020663;28;20713;-74
2023/09/11 11:03:30;;;;;;;11.60;10.00;;;27.90;99.90;;;;;;5020835;28;20524;-74
2023/09/11 11:05:58;;;;;;;9.83;8.93;;;28.00;99.90;;;;;;5025114;28;20426;-74
2023/09/11 11:08:24;;;;;;;11.97;10.27;;;28.10;99.90;;;;;;5024075;28;20577;-74
2023/09/11 11:10:57;;;;;;;10.40;9.40;;;28.20;99.90;;;;;;5026745;28;20460;-74
2023/09/11 11:13:24;;;;;;;10.87;9.83;;;28.30;99.90;;;;;;5019844;28;20554;-75
2023/09/11 11:16:14;;;;;;;10.10;9.10;;;28.30;99.90;;;;;;5023351;28;20507;-74
2023/09/11 11:18:40;;;;;;;11.13;10.03;;;28.40;99.90;;;;;;5006010;28;20211;-75
2023/09/11 11:21:08;;;;;;;12.77;10.27;;;28.40;99.90;;;;;;5007664;28;20435;-75
2023/09/11 11:23:36;;;;;;;9.97;9.17;;;28.50;99.90;;;;;;5021055;28;20225;-75
2023/09/11 11:26:09;;;;;;;10.57;9.17;;;28.60;99.90;;;;;;5020793;28;20525;-75
2023/09/11 11:28:40;;;;;;;11.70;10.00;;;28.70;99.90;;;;;;5021128;28;20423;-75
2023/09/11 11:31:08;;;;;;;9.67;8.77;;;28.70;99.90;;;;;;5010306;28;20477;-75
2023/09/11 11:33:36;;;;;;;10.30;9.30;;;28.70;99.90;;;;;;5003242;28;20464;-75
2023/09/11 11:36:05;;;;;;;10.90;9.20;;;28.80;99.90;;;;;;5023900;28;20443;-76
2023/09/11 11:38:31;;;;;;;11.37;9.07;;;29.00;99.90;;;;;;5028339;28;20423;-74
2023/09/11 11:40:57;;;;;;;8.90;8.10;;;29.10;99.90;;;;;;5022000;28;20438;-74
2023/09/11 11:43:23;;;;;;;9.60;8.63;;;29.10;99.90;;;;;;5022635;28;20431;-74
2023/09/11 11:45:49;;;;;;;14.13;9.57;;;29.30;99.90;;;;;;5025454;28;20839;-74
2023/09/11 11:48:15;;;;;;;10.43;8.90;;;29.40;99.90;;;;;;5017491;28;20431;-74
2023/09/11 11:50:42;;;;;;;10.57;9.47;;;29.50;99.90;;;;;;5023174;28;20290;-74
2023/09/11 11:53:07;;;;;;;15.33;9.00;;;29.70;99.90;;;;;;5024677;28;20443;-74
2023/09/11 11:55:33;;;;;;;9.70;8.80;;;29.80;99.90;;;;;;5025801;28;20816;-74
2023/09/11 11:57:58;;;;;;;9.40;8.53;;;30.10;99.90;;;;;;5021784;28;20208;-74
2023/09/11 12:00:24;;;;;;;9.60;8.60;;;30.30;99.90;;;;;;5025070;28;20177;-75
2023/09/11 12:02:50;;;;;;;8.90;8.00;;;30.70;99.90;;;;;;5020841;28;20743;-74
2023/09/11 12:05:15;;;;;;;12.90;8.97;;;31.30;99.90;;;;;;5024070;28;20188;-74
2023/09/11 12:07:42;;;;;;;10.07;8.47;;;31.90;99.90;;;;;;5025327;28;20224;-74
2023/09/11 12:10:11;;;;;;;9.03;8.10;;;32.40;99.10;;;;;;5010710;28;20255;-74
2023/09/11 12:12:44;;;;;;;9.77;7.97;;;32.80;95.90;;;;;;5023673;28;20471;-74
2023/09/11 12:15:10;;;;;;;10.00;8.53;;;33.30;94.00;;;;;;5024048;28;20442;-74
2023/09/11 12:17:47;;;;;;;9.57;8.30;;;33.60;92.60;;;;;;5021839;28;20410;-74
2023/09/11 12:20:16;;;;;;;9.30;8.50;;;34.00;92.30;;;;;;5022533;28;20404;-74
2023/09/11 12:22:43;;;;;;;8.83;8.07;;;34.30;91.80;;;;;;5025809;28;20407;-75
2023/09/11 12:25:09;;;;;;;9.47;7.90;;;34.60;90.70;;;;;;5022459;28;20401;-75
2023/09/11 12:27:35;;;;;;;11.30;8.90;;;34.90;89.80;;;;;;5021766;28;20406;-75
2023/09/11 12:30:05;;;;;;;12.97;8.10;;;35.00;88.90;;;;;;5009884;28;20466;-75
2023/09/11 12:32:31;;;;;;;9.23;8.43;;;35.20;87.00;;;;;;5026168;28;20445;-75